Time;durP1;ratioP1;P1;durP2;ratioP2;P2;SDS_P1;SDS_P2;PMS_P1;PMS_P2;Temp;Humidity;BMP_temperature;BMP_pressure;BME280_temperature;BME280_humidity;BME280_pressure;Samples;Min_cycle;Max_cycle;Signal;HPM_P1;HPM_P2
2023/05/30 00:00:07;;;;;;;0.80;0.80;;;;;;;;;;5000318;28;20440;-76
2023/05/30 00:02:35;;;;;;;0.70;0.67;;;;;;;;;;5008328;28;20489;-76
2023/05/30 00:05:02;;;;;;;0.70;0.60;;;;;;;;;;4998690;28;20453;-75
2023/05/30 00:07:29;;;;;;;0.70;0.60;;;;;;;;;;4992971;28;20625;-75
2023/05/30 00:09:57;;;;;;;0.70;0.70;;;;;;;;;;4995730;28;20450;-75
2023/05/30 00:12:24;;;;;;;0.70;0.70;;;;;;;;;;5008107;28;20480;-75
2023/05/30 00:14:50;;;;;;;0.70;0.70;;;;;;;;;;5003175;28;20440;-76
2023/05/30 00:17:17;;;;;;;0.77;0.70;;;;;;;;;;5005253;28;20483;-75
2023/05/30 00:19:45;;;;;;;0.70;0.60;;;;;;;;;;4998991;28;20437;-75
2023/05/30 00:22:12;;;;;;;2.10;1.90;;;;;;;;;;5004162;28;20457;-74
2023/05/30 00:24:38;;;;;;;0.70;0.60;;;;;;;;;;5006484;28;20441;-76
2023/05/30 00:27:07;;;;;;;0.70;0.60;;;;;;;;;;5002904;28;20493;-77
2023/05/30 00:29:36;;;;;;;3.07;2.90;;;;;;;;;;5000096;28;20530;-75
2023/05/30 00:32:03;;;;;;;0.70;0.60;;;;;;;;;;5004515;28;20442;-72
2023/05/30 00:34:29;;;;;;;0.70;0.60;;;;;;;;;;5001807;28;20446;-74
2023/05/30 00:36:56;;;;;;;0.70;0.60;;;;;;;;;;5000046;28;20478;-74
2023/05/30 00:39:24;;;;;;;0.80;0.77;;;;;;;;;;5010483;28;20497;-76
2023/05/30 00:41:51;;;;;;;0.70;0.60;;;;;;;;;;5008396;28;20443;-76
2023/05/30 00:44:19;;;;;;;0.70;0.70;;;;;;;;;;5007602;28;20457;-75
2023/05/30 00:46:46;;;;;;;0.70;0.70;;;;;;;;;;5002660;28;20832;-75
2023/05/30 00:49:13;;;;;;;0.70;0.60;;;;;;;;;;5010294;28;20465;-74
2023/05/30 00:51:39;;;;;;;0.70;0.60;;;;;;;;;;4990999;28;21067;-74
2023/05/30 00:54:07;;;;;;;0.70;0.60;;;;;;;;;;5006873;28;20939;-75
2023/05/30 00:56:34;;;;;;;0.70;0.60;;;;;;;;;;4995927;28;20446;-75
2023/05/30 00:59:01;;;;;;;1.33;1.23;;;;;;;;;;4990283;28;20970;-73
2023/05/30 01:01:32;;;;;;;0.70;0.60;;;;;;;;;;5014323;28;20435;-75
2023/05/30 01:03:59;;;;;;;0.70;0.60;;;;;;;;;;5005027;28;20451;-73
2023/05/30 01:06:29;;;;;;;0.70;0.70;;;;;;;;;;5002350;28;20472;-74
2023/05/30 01:08:57;;;;;;;0.70;0.60;;;;;;;;;;5010485;28;20525;-75
2023/05/30 01:11:28;;;;;;;0.70;0.60;;;;;;;;;;5006544;28;20452;-75
2023/05/30 01:14:00;;;;;;;0.70;0.70;;;;;;;;;;5004669;28;20428;-76
2023/05/30 01:16:28;;;;;;;0.70;0.60;;;;;;;;;;4999084;28;20457;-74
2023/05/30 01:19:02;;;;;;;0.70;0.60;;;;;;;;;;5007834;28;20967;-72
2023/05/30 01:21:30;;;;;;;0.70;0.70;;;;;;;;;;5005451;28;20944;-73
2023/05/30 01:24:07;;;;;;;0.70;0.60;;;;;;;;;;5005675;28;20465;-74
2023/05/30 01:26:45;;;;;;;0.70;0.60;;;;;;;;;;5002976;28;20890;-76
2023/05/30 01:29:17;;;;;;;0.70;0.60;;;;;;;;;;5004240;28;20933;-75
2023/05/30 01:31:45;;;;;;;0.70;0.60;;;;;;;;;;5009104;28;20448;-75
2023/05/30 01:34:12;;;;;;;0.80;0.80;;;;;;;;;;4995058;28;20446;-74
2023/05/30 01:36:39;;;;;;;0.70;0.70;;;;;;;;;;5000698;28;20815;-74
2023/05/30 01:39:06;;;;;;;0.70;0.70;;;;;;;;;;4999891;28;20960;-73
2023/05/30 01:41:36;;;;;;;0.70;0.70;;;;;;;;;;5005705;28;20456;-74
2023/05/30 01:44:06;;;;;;;0.70;0.70;;;;;;;;;;5001106;28;20998;-76
2023/05/30 01:46:37;;;;;;;0.70;0.60;;;;;;;;;;4998748;28;21380;-74
2023/05/30 01:49:08;;;;;;;0.70;0.60;;;;;;;;;;5006685;28;20445;-75
2023/05/30 01:51:38;;;;;;;0.70;0.60;;;;;;;;;;5002019;28;20523;-73
2023/05/30 01:54:06;;;;;;;0.70;0.60;;;;;;;;;;4995990;28;20443;-75
2023/05/30 01:56:34;;;;;;;0.70;0.60;;;;;;;;;;5003636;28;20450;-75
2023/05/30 01:59:02;;;;;;;0.70;0.60;;;;;;;;;;5011467;28;20507;-75
2023/05/30 02:01:29;;;;;;;0.70;0.60;;;;;;;;;;5002847;28;20512;-76
2023/05/30 02:03:58;;;;;;;0.70;0.60;;;;;;;;;;5004784;28;20547;-75
2023/05/30 02:06:25;;;;;;;0.80;0.70;;;;;;;;;;5011825;28;20523;-74
2023/05/30 02:08:52;;;;;;;0.70;0.60;;;;;;;;;;4995909;28;20526;-75
2023/05/30 02:11:18;;;;;;;0.70;0.70;;;;;;;;;;5001734;28;20446;-74
2023/05/30 02:13:45;;;;;;;0.70;0.70;;;;;;;;;;5009989;28;20450;-74
2023/05/30 02:16:13;;;;;;;0.70;0.60;;;;;;;;;;5007934;28;20470;-74
2023/05/30 02:18:41;;;;;;;0.70;0.70;;;;;;;;;;5007322;28;20434;-74
2023/05/30 02:21:09;;;;;;;0.70;0.60;;;;;;;;;;5005869;28;20943;-75
2023/05/30 02:23:35;;;;;;;0.70;0.70;;;;;;;;;;5003122;28;20480;-75
2023/05/30 02:26:04;;;;;;;0.70;0.60;;;;;;;;;;5000953;28;20971;-75
2023/05/30 02:28:31;;;;;;;0.70;0.60;;;;;;;;;;4994104;28;20553;-75
2023/05/30 02:30:58;;;;;;;0.70;0.60;;;;;;;;;;5010242;28;20556;-74
2023/05/30 02:33:25;;;;;;;0.70;0.60;;;;;;;;;;5005817;28;20490;-74
2023/05/30 02:35:51;;;;;;;0.70;0.60;;;;;;;;;;5004410;28;20437;-75
2023/05/30 02:38:19;;;;;;;0.70;0.60;;;;;;;;;;5002952;28;20474;-76
2023/05/30 02:40:48;;;;;;;0.70;0.60;;;;;;;;;;5002095;28;20471;-74
2023/05/30 02:43:15;;;;;;;0.70;0.60;;;;;;;;;;5010976;28;20458;-76
2023/05/30 02:45:47;;;;;;;0.70;0.60;;;;;;;;;;4992234;28;20486;-75
2023/05/30 02:48:15;;;;;;;0.70;0.70;;;;;;;;;;5007089;28;20508;-74
2023/05/30 02:50:42;;;;;;;0.70;0.60;;;;;;;;;;4990725;28;20550;-75
2023/05/30 02:53:14;;;;;;;0.70;0.60;;;;;;;;;;5003057;28;20464;-75
2023/05/30 02:55:43;;;;;;;0.70;0.70;;;;;;;;;;5000022;28;20785;-76
2023/05/30 02:58:29;;;;;;;0.70;0.70;;;;;;;;;;5004229;28;21031;-75
2023/05/30 03:01:05;;;;;;;0.70;0.60;;;;;;;;;;5007205;28;20805;-75
2023/05/30 03:03:34;;;;;;;0.70;0.60;;;;;;;;;;4984492;28;20455;-75
2023/05/30 03:06:14;;;;;;;0.70;0.60;;;;;;;;;;5008341;28;20453;-74
2023/05/30 03:08:55;;;;;;;0.80;0.80;;;;;;;;;;5008309;28;20469;-74
2023/05/30 03:11:25;;;;;;;0.70;0.70;;;;;;;;;;5002451;28;20856;-75
2023/05/30 03:13:52;;;;;;;0.70;0.60;;;;;;;;;;5010529;28;20437;-75
2023/05/30 03:16:19;;;;;;;0.70;0.60;;;;;;;;;;5002673;28;20445;-74
2023/05/30 03:18:45;;;;;;;0.70;0.60;;;;;;;;;;5002596;28;20969;-76
2023/05/30 03:21:14;;;;;;;0.70;0.60;;;;;;;;;;5008223;28;20853;-75
2023/05/30 03:23:41;;;;;;;0.70;0.60;;;;;;;;;;5008072;28;20901;-75
2023/05/30 03:26:08;;;;;;;0.70;0.60;;;;;;;;;;5001033;28;20442;-75
2023/05/30 03:28:36;;;;;;;0.70;0.70;;;;;;;;;;5004151;28;20484;-75
2023/05/30 03:31:29;;;;;;;0.70;0.60;;;;;;;;;;5002749;28;20445;-76
2023/05/30 03:33:56;;;;;;;0.70;0.60;;;;;;;;;;5000159;28;20498;-74
2023/05/30 03:36:24;;;;;;;0.70;0.60;;;;;;;;;;5008807;28;20844;-74
2023/05/30 03:38:51;;;;;;;0.70;0.60;;;;;;;;;;5001854;28;20525;-76
2023/05/30 03:41:17;;;;;;;0.70;0.60;;;;;;;;;;4990015;28;20457;-74
2023/05/30 03:43:45;;;;;;;0.70;0.60;;;;;;;;;;5002272;28;20999;-75
2023/05/30 03:46:15;;;;;;;0.70;0.60;;;;;;;;;;5003490;28;20470;-75
2023/05/30 03:48:44;;;;;;;0.70;0.60;;;;;;;;;;4998729;28;20423;-73
2023/05/30 03:51:11;;;;;;;0.90;0.90;;;;;;;;;;4996366;28;20495;-75
2023/05/30 03:53:39;;;;;;;0.70;0.60;;;;;;;;;;5008115;28;20540;-74
2023/05/30 03:56:06;;;;;;;0.80;0.70;;;;;;;;;;5008740;28;20503;-75
2023/05/30 03:58:33;;;;;;;0.70;0.70;;;;;;;;;;5008718;28;20466;-76
2023/05/30 04:01:01;;;;;;;0.80;0.70;;;;;;;;;;5006926;28;20459;-74
2023/05/30 04:03:28;;;;;;;0.70;0.60;;;;;;;;;;4989960;28;20474;-73
2023/05/30 04:06:05;;;;;;;0.70;0.60;;;;;;;;;;5000430;28;20454;-73
2023/05/30 04:08:32;;;;;;;0.70;0.60;;;;;;;;;;4996874;28;20477;-73
2023/05/30 04:10:59;;;;;;;0.70;0.60;;;;;;;;;;5004424;28;20518;-76
2023/05/30 04:13:25;;;;;;;0.70;0.60;;;;;;;;;;5007761;28;20549;-75
2023/05/30 04:15:52;;;;;;;0.80;0.80;;;;;;;;;;4986652;28;20454;-73
2023/05/30 04:18:20;;;;;;;0.70;0.60;;;;;;;;;;4992270;28;20539;-75
2023/05/30 04:20:47;;;;;;;0.70;0.60;;;;;;;;;;4991389;28;20446;-73
2023/05/30 04:23:14;;;;;;;0.70;0.60;;;;;;;;;;5003487;28;20453;-77
2023/05/30 04:25:44;;;;;;;0.80;0.80;;;;;;;;;;5007067;28;20455;-74
2023/05/30 04:28:12;;;;;;;0.70;0.60;;;;;;;;;;4993818;28;21327;-75
2023/05/30 04:30:40;;;;;;;0.70;0.60;;;;;;;;;;5001545;28;20527;-75
2023/05/30 04:33:07;;;;;;;0.70;0.60;;;;;;;;;;4999215;28;20461;-74
2023/05/30 04:35:36;;;;;;;0.70;0.70;;;;;;;;;;4989563;28;20961;-74
2023/05/30 04:38:03;;;;;;;0.70;0.60;;;;;;;;;;4999503;28;21050;-75
2023/05/30 04:40:30;;;;;;;3.13;1.37;;;;;;;;;;4990779;28;20447;-76
2023/05/30 04:42:56;;;;;;;0.70;0.60;;;;;;;;;;5008697;28;20453;-73
2023/05/30 04:45:28;;;;;;;0.70;0.70;;;;;;;;;;5002231;28;20450;-75
2023/05/30 04:47:55;;;;;;;0.70;0.60;;;;;;;;;;4995132;28;20439;-74
2023/05/30 04:50:24;;;;;;;0.70;0.60;;;;;;;;;;4997576;28;20452;-75
2023/05/30 04:52:52;;;;;;;0.70;0.60;;;;;;;;;;4989663;28;20542;-73
2023/05/30 04:55:19;;;;;;;0.70;0.60;;;;;;;;;;4988328;28;20542;-73
2023/05/30 04:57:46;;;;;;;0.70;0.70;;;;;;;;;;5004368;28;20488;-73
2023/05/30 05:00:13;;;;;;;0.70;0.60;;;;;;;;;;5007076;28;20515;-74
2023/05/30 05:02:44;;;;;;;0.70;0.60;;;;;;;;;;5009191;28;20536;-73
2023/05/30 05:05:11;;;;;;;0.70;0.60;;;;;;;;;;5006518;28;20527;-74
2023/05/30 05:07:37;;;;;;;3.03;1.00;;;;;;;;;;5000085;28;20856;-75
2023/05/30 05:10:10;;;;;;;0.70;0.70;;;;;;;;;;5001983;28;20462;-76
2023/05/30 05:12:37;;;;;;;0.70;0.60;;;;;;;;;;5001435;28;20432;-73
2023/05/30 05:15:04;;;;;;;0.70;0.60;;;;;;;;;;5010646;28;20459;-74
2023/05/30 05:17:32;;;;;;;0.70;0.60;;;;;;;;;;4996078;28;20510;-73
2023/05/30 05:19:58;;;;;;;0.73;0.73;;;;;;;;;;5003359;28;20446;-74
2023/05/30 05:22:26;;;;;;;0.70;0.70;;;;;;;;;;4994070;28;20490;-75
2023/05/30 05:24:53;;;;;;;0.70;0.70;;;;;;;;;;5007684;28;21030;-75
2023/05/30 05:27:21;;;;;;;0.70;0.60;;;;;;;;;;5001736;28;20531;-72
2023/05/30 05:29:49;;;;;;;0.70;0.70;;;;;;;;;;5005475;28;20435;-74
2023/05/30 05:32:16;;;;;;;0.70;0.60;;;;;;;;;;5000325;28;20538;-75
2023/05/30 05:34:42;;;;;;;0.70;0.60;;;;;;;;;;5006293;28;20507;-73
2023/05/30 05:37:09;;;;;;;0.70;0.60;;;;;;;;;;5005910;28;20461;-75
2023/05/30 05:39:35;;;;;;;0.70;0.60;;;;;;;;;;5003113;28;21046;-73
2023/05/30 05:42:03;;;;;;;0.70;0.60;;;;;;;;;;5000867;28;21000;-75
2023/05/30 05:44:31;;;;;;;0.70;0.67;;;;;;;;;;4999611;28;20464;-73
2023/05/30 05:46:58;;;;;;;0.70;0.70;;;;;;;;;;5002941;28;20438;-75
2023/05/30 05:49:24;;;;;;;0.70;0.60;;;;;;;;;;5004947;28;20468;-75
2023/05/30 05:51:52;;;;;;;0.70;0.60;;;;;;;;;;5002330;28;20463;-76
2023/05/30 05:54:18;;;;;;;0.70;0.60;;;;;;;;;;5011850;28;20443;-76
2023/05/30 05:56:46;;;;;;;0.70;0.60;;;;;;;;;;5002385;28;20533;-75
2023/05/30 05:59:12;;;;;;;0.70;0.70;;;;;;;;;;4999687;28;20531;-75
2023/05/30 06:01:42;;;;;;;0.70;0.60;;;;;;;;;;5002032;28;20446;-74
2023/05/30 06:04:10;;;;;;;0.70;0.60;;;;;;;;;;5005307;28;20869;-75
2023/05/30 06:06:37;;;;;;;0.70;0.60;;;;;;;;;;5003917;28;20469;-75
2023/05/30 06:09:04;;;;;;;0.70;0.60;;;;;;;;;;4998006;28;20432;-74
2023/05/30 06:11:31;;;;;;;0.70;0.63;;;;;;;;;;5004480;28;20441;-74
2023/05/30 06:13:57;;;;;;;0.70;0.70;;;;;;;;;;5001948;28;20438;-74
2023/05/30 06:16:24;;;;;;;0.80;0.70;;;;;;;;;;4999858;28;20438;-74
2023/05/30 06:18:53;;;;;;;0.80;0.80;;;;;;;;;;4998863;28;20573;-75
2023/05/30 06:21:21;;;;;;;0.77;0.77;;;;;;;;;;5007260;28;20903;-74
2023/05/30 06:23:47;;;;;;;0.87;0.87;;;;;;;;;;5000460;28;20432;-74
2023/05/30 06:26:14;;;;;;;0.70;0.60;;;;;;;;;;5009960;28;20442;-76
2023/05/30 06:28:41;;;;;;;0.70;0.60;;;;;;;;;;5011376;28;20438;-74
2023/05/30 06:31:07;;;;;;;0.80;0.70;;;;;;;;;;5012791;28;20973;-76
2023/05/30 06:33:34;;;;;;;0.70;0.60;;;;;;;;;;5006412;28;20475;-75
2023/05/30 06:36:02;;;;;;;0.70;0.67;;;;;;;;;;5003690;28;20885;-73
2023/05/30 06:38:29;;;;;;;1.20;1.10;;;;;;;;;;5005942;28;20505;-75
2023/05/30 06:40:55;;;;;;;0.70;0.60;;;;;;;;;;5007102;28;21078;-75
2023/05/30 06:43:22;;;;;;;0.70;0.70;;;;;;;;;;5003623;28;20444;-75
2023/05/30 06:45:49;;;;;;;0.80;0.70;;;;;;;;;;5009834;28;20441;-73
2023/05/30 06:48:16;;;;;;;0.93;0.83;;;;;;;;;;4998024;28;20442;-75
2023/05/30 06:50:44;;;;;;;0.70;0.60;;;;;;;;;;5003059;28;20987;-74
2023/05/30 06:53:12;;;;;;;0.70;0.60;;;;;;;;;;4999422;28;20461;-74
2023/05/30 06:55:39;;;;;;;0.80;0.77;;;;;;;;;;5001550;28;20450;-76
2023/05/30 06:58:05;;;;;;;0.90;0.90;;;;;;;;;;4999904;28;20478;-75
2023/05/30 07:00:33;;;;;;;0.70;0.60;;;;;;;;;;4999308;28;20501;-75
2023/05/30 07:03:02;;;;;;;0.70;0.70;;;;;;;;;;4998478;28;20474;-73
2023/05/30 07:05:29;;;;;;;0.70;0.70;;;;;;;;;;5002884;28;20502;-74
2023/05/30 07:07:56;;;;;;;0.70;0.70;;;;;;;;;;5007986;28;20464;-73
2023/05/30 07:10:24;;;;;;;0.77;0.70;;;;;;;;;;4999880;28;20474;-74
2023/05/30 07:12:52;;;;;;;0.70;0.70;;;;;;;;;;5005966;28;20471;-76
2023/05/30 07:15:20;;;;;;;0.87;0.87;;;;;;;;;;5000545;28;20463;-74
2023/05/30 07:17:47;;;;;;;0.70;0.60;;;;;;;;;;5002156;28;20499;-74
2023/05/30 07:20:20;;;;;;;0.70;0.70;;;;;;;;;;5005074;28;20443;-81
2023/05/30 07:22:47;;;;;;;0.80;0.70;;;;;;;;;;5001611;28;20668;-75
2023/05/30 07:25:14;;;;;;;1.23;1.13;;;;;;;;;;5010801;28;20466;-76
2023/05/30 07:27:42;;;;;;;0.70;0.70;;;;;;;;;;5003046;28;20477;-76
2023/05/30 07:30:08;;;;;;;0.70;0.70;;;;;;;;;;5004968;28;20526;-76
2023/05/30 07:32:35;;;;;;;0.70;0.70;;;;;;;;;;5004419;28;20953;-76
2023/05/30 07:35:02;;;;;;;0.70;0.70;;;;;;;;;;5000690;28;20449;-77
2023/05/30 07:37:29;;;;;;;0.80;0.80;;;;;;;;;;5001547;28;20501;-78
2023/05/30 07:40:03;;;;;;;0.80;0.73;;;;;;;;;;4999648;28;20548;-80
2023/05/30 07:42:30;;;;;;;0.70;0.70;;;;;;;;;;5005056;28;20548;-80
2023/05/30 07:44:58;;;;;;;1.00;0.90;;;;;;;;;;5005118;28;20853;-82
2023/05/30 07:47:25;;;;;;;1.40;1.10;;;;;;;;;;5002063;28;20441;-82
2023/05/30 07:49:52;;;;;;;0.70;0.70;;;;;;;;;;5002199;28;20495;-82
2023/05/30 07:52:20;;;;;;;1.00;0.80;;;;;;;;;;5007413;28;20488;-81
2023/05/30 07:54:48;;;;;;;0.80;0.80;;;;;;;;;;5004075;28;20446;-82
2023/05/30 07:57:14;;;;;;;1.17;0.80;;;;;;;;;;5001391;28;20825;-76
2023/05/30 07:59:41;;;;;;;0.70;0.60;;;;;;;;;;5000636;28;20508;-77
2023/05/30 08:02:10;;;;;;;0.80;0.80;;;;;;;;;;5007789;28;20462;-81
2023/05/30 08:04:37;;;;;;;1.23;0.90;;;;;;;;;;5008673;28;20459;-79
2023/05/30 08:07:05;;;;;;;0.70;0.60;;;;;;;;;;5004938;28;20595;-82
2023/05/30 08:09:33;;;;;;;0.70;0.60;;;;;;;;;;5017332;28;20462;-80
2023/05/30 08:12:02;;;;;;;12.57;1.33;;;;;;;;;;5005757;28;20435;-80
2023/05/30 08:14:29;;;;;;;1.10;0.97;;;;;;;;;;5006702;28;20488;-79
2023/05/30 08:16:55;;;;;;;0.90;0.90;;;;;;;;;;4996177;28;20906;-80
2023/05/30 08:19:23;;;;;;;0.70;0.70;;;;;;;;;;5006925;28;20489;-74
2023/05/30 08:21:50;;;;;;;0.70;0.70;;;;;;;;;;5011585;28;20482;-80
2023/05/30 08:24:17;;;;;;;0.80;0.80;;;;;;;;;;5012965;28;20426;-80
2023/05/30 08:26:47;;;;;;;0.70;0.70;;;;;;;;;;5018299;28;20500;-81
2023/05/30 08:29:15;;;;;;;1.07;0.97;;;;;;;;;;5008796;28;20457;-78
2023/05/30 08:31:42;;;;;;;0.70;0.70;;;;;;;;;;5008615;28;20941;-80
2023/05/30 08:34:09;;;;;;;0.97;0.87;;;;;;;;;;5009583;28;20537;-77
2023/05/30 08:36:37;;;;;;;1.00;0.90;;;;;;;;;;5006067;28;20503;-79
2023/05/30 08:39:04;;;;;;;0.73;0.70;;;;;;;;;;5007841;28;20486;-78
2023/05/30 08:41:41;;;;;;;0.80;0.80;;;;;;;;;;5006187;28;20483;-78
2023/05/30 08:44:08;;;;;;;0.70;0.70;;;;;;;;;;5006696;28;20440;-78
2023/05/30 08:46:35;;;;;;;0.77;0.70;;;;;;;;;;5008599;28;20553;-78
2023/05/30 08:49:03;;;;;;;0.70;0.70;;;;;;;;;;4990697;28;20813;-79
2023/05/30 08:51:30;;;;;;;0.80;0.73;;;;;;;;;;5001881;28;20973;-78
2023/05/30 08:54:01;;;;;;;0.90;0.80;;;;;;;;;;5003092;28;20461;-78
2023/05/30 08:56:28;;;;;;;1.07;0.97;;;;;;;;;;5006468;28;20780;-81
2023/05/30 08:58:56;;;;;;;0.80;0.73;;;;;;;;;;5014333;28;20477;-80
2023/05/30 09:01:23;;;;;;;1.30;1.20;;;;;;;;;;5011386;28;20817;-79
2023/05/30 09:03:50;;;;;;;0.70;0.67;;;;;;;;;;5014471;28;20462;-81
2023/05/30 09:06:17;;;;;;;0.83;0.80;;;;;;;;;;5014487;28;20456;-80
2023/05/30 09:08:45;;;;;;;1.10;1.00;;;;;;;;;;5010597;28;20507;-81
2023/05/30 09:11:14;;;;;;;0.73;0.70;;;;;;;;;;5015967;28;20451;-81
2023/05/30 09:13:41;;;;;;;0.93;0.93;;;;;;;;;;5015898;28;20437;-80
2023/05/30 09:16:08;;;;;;;1.00;0.87;;;;;;;;;;5006813;28;20449;-82
2023/05/30 09:18:35;;;;;;;1.43;1.33;;;;;;;;;;5013107;28;21048;-78
2023/05/30 09:21:02;;;;;;;0.70;0.70;;;;;;;;;;4986914;28;20586;-79
2023/05/30 09:23:30;;;;;;;0.80;0.73;;;;;;;;;;5015136;28;20461;-80
2023/05/30 09:25:57;;;;;;;0.80;0.70;;;;;;;;;;4995835;28;20483;-78
2023/05/30 09:28:26;;;;;;;0.80;0.70;;;;;;;;;;5000593;28;20827;-80
2023/05/30 09:30:56;;;;;;;1.20;1.10;;;;;;;;;;5005097;28;20456;-79
2023/05/30 09:33:40;;;;;;;0.80;0.70;;;;;;;;;;5011138;28;20438;-82
2023/05/30 09:36:12;;;;;;;0.70;0.60;;;;;;;;;;5000288;28;20441;-81
2023/05/30 09:38:39;;;;;;;1.00;0.87;;;;;;;;;;5006666;28;20462;-79
2023/05/30 09:41:07;;;;;;;1.83;1.23;;;;;;;;;;5011269;28;20465;-80
2023/05/30 09:43:36;;;;;;;1.43;1.33;;;;;;;;;;5017564;28;20474;-80
2023/05/30 09:46:04;;;;;;;0.77;0.73;;;;;;;;;;5007671;28;20529;-79
2023/05/30 09:48:31;;;;;;;0.80;0.70;;;;;;;;;;5011599;28;20433;-78
2023/05/30 09:51:01;;;;;;;0.70;0.70;;;;;;;;;;5009189;28;20434;-75
2023/05/30 09:53:31;;;;;;;1.00;0.70;;;;;;;;;;5004226;28;20504;-77
2023/05/30 09:56:01;;;;;;;0.70;0.70;;;;;;;;;;5011546;28;20450;-77
2023/05/30 09:58:28;;;;;;;1.00;0.90;;;;;;;;;;5004841;28;20490;-76
2023/05/30 10:00:57;;;;;;;0.70;0.70;;;;;;;;;;5006665;28;20496;-80
2023/05/30 10:03:40;;;;;;;0.80;0.70;;;;;;;;;;5003461;28;20462;-80
2023/05/30 10:06:11;;;;;;;1.03;0.80;;;;;;;;;;5005075;28;20485;-79
2023/05/30 10:08:38;;;;;;;0.80;0.70;;;;;;;;;;5004760;28;20465;-80
2023/05/30 10:11:06;;;;;;;0.70;0.60;;;;;;;;;;5010071;28;20434;-80
2023/05/30 10:13:34;;;;;;;1.10;1.00;;;;;;;;;;5006796;28;20451;-79
2023/05/30 10:16:03;;;;;;;0.70;0.60;;;;;;;;;;5005896;28;20438;-79
2023/05/30 10:18:31;;;;;;;0.80;0.70;;;;;;;;;;5002954;28;20970;-78
2023/05/30 10:20:59;;;;;;;4.80;1.20;;;;;;;;;;5012214;28;20452;-79
2023/05/30 10:23:27;;;;;;;6.10;1.93;;;;;;;;;;5007703;28;20530;-80
2023/05/30 10:25:54;;;;;;;2.23;1.20;;;;;;;;;;5012919;28;20446;-79
2023/05/30 10:28:26;;;;;;;0.80;0.70;;;;;;;;;;5005288;28;20548;-78
2023/05/30 10:30:53;;;;;;;2.00;1.50;;;;;;;;;;5007283;28;20437;-79
2023/05/30 10:33:21;;;;;;;1.20;1.10;;;;;;;;;;5012115;28;20463;-81
2023/05/30 10:36:10;;;;;;;1.30;1.20;;;;;;;;;;5006260;28;20424;-79
2023/05/30 10:38:43;;;;;;;1.33;1.20;;;;;;;;;;5005169;28;20500;-79
2023/05/30 10:41:14;;;;;;;0.80;0.80;;;;;;;;;;4993262;28;20440;-78
2023/05/30 10:43:45;;;;;;;0.80;0.70;;;;;;;;;;4991799;28;20869;-80
2023/05/30 10:46:17;;;;;;;0.80;0.80;;;;;;;;;;5000804;28;20450;-79
2023/05/30 10:48:50;;;;;;;0.70;0.60;;;;;;;;;;5004311;28;20450;-80
2023/05/30 10:51:17;;;;;;;0.80;0.73;;;;;;;;;;5004775;28;20470;-80
2023/05/30 10:53:45;;;;;;;0.77;0.70;;;;;;;;;;5003886;28;20806;-81
2023/05/30 10:56:33;;;;;;;0.70;0.70;;;;;;;;;;4990425;28;20451;-79
2023/05/30 10:59:10;;;;;;;0.87;0.87;;;;;;;;;;4983667;28;20460;-80
2023/05/30 11:01:37;;;;;;;0.90;0.80;;;;;;;;;;5004337;28;20474;-80
2023/05/30 11:04:06;;;;;;;0.90;0.90;;;;;;;;;;5011264;28;20920;-80
2023/05/30 11:06:34;;;;;;;0.80;0.70;;;;;;;;;;5005879;28;20882;-80
2023/05/30 11:09:04;;;;;;;0.80;0.80;;;;;;;;;;5005657;28;20425;-80
2023/05/30 11:11:36;;;;;;;0.70;0.60;;;;;;;;;;5003951;28;20756;-80
2023/05/30 11:14:04;;;;;;;1.00;0.90;;;;;;;;;;5005913;28;20428;-79
2023/05/30 11:16:31;;;;;;;0.90;0.80;;;;;;;;;;5010840;28;20451;-80
2023/05/30 11:19:10;;;;;;;0.80;0.80;;;;;;;;;;5001592;28;20942;-76
2023/05/30 11:21:53;;;;;;;0.87;0.87;;;;;;;;;;5006804;28;20458;-80
2023/05/30 11:24:20;;;;;;;0.80;0.80;;;;;;;;;;5013115;28;20446;-75
2023/05/30 11:26:54;;;;;;;1.53;1.00;;;;;;;;;;5008361;28;20496;-78
2023/05/30 11:29:31;;;;;;;0.80;0.70;;;;;;;;;;5008362;28;20401;-79
2023/05/30 11:32:00;;;;;;;0.80;0.70;;;;;;;;;;5009533;28;20939;-80
2023/05/30 11:34:30;;;;;;;0.80;0.70;;;;;;;;;;5008483;28;20444;-79
2023/05/30 11:36:57;;;;;;;0.80;0.73;;;;;;;;;;5003579;28;20548;-79
2023/05/30 11:39:25;;;;;;;0.80;0.70;;;;;;;;;;4987898;28;20806;-83
2023/05/30 11:41:52;;;;;;;0.70;0.70;;;;;;;;;;5010262;28;20492;-80
2023/05/30 11:44:19;;;;;;;0.80;0.70;;;;;;;;;;5011628;28;20433;-81
2023/05/30 11:46:57;;;;;;;0.80;0.70;;;;;;;;;;5007720;28;20437;-80
2023/05/30 11:49:26;;;;;;;0.80;0.70;;;;;;;;;;5013885;28;20458;-80
2023/05/30 11:51:55;;;;;;;0.80;0.73;;;;;;;;;;5009882;28;20585;-80
2023/05/30 11:54:23;;;;;;;0.90;0.90;;;;;;;;;;5014372;28;20516;-82
2023/05/30 11:56:52;;;;;;;0.80;0.80;;;;;;;;;;5006504;28;20444;-82
2023/05/30 11:59:20;;;;;;;0.80;0.80;;;;;;;;;;5005998;28;20457;-81
2023/05/30 12:01:51;;;;;;;1.13;1.03;;;;;;;;;;5005644;28;20802;-81
2023/05/30 12:04:23;;;;;;;1.10;1.00;;;;;;;;;;4997002;28;20464;-79
2023/05/30 12:06:51;;;;;;;0.80;0.70;;;;;;;;;;5011709;28;20515;-81
2023/05/30 12:09:20;;;;;;;0.80;0.77;;;;;;;;;;5012347;28;20460;-82
2023/05/30 12:11:53;;;;;;;0.90;0.90;;;;;;;;;;4999312;28;20446;-79
2023/05/30 12:14:21;;;;;;;0.80;0.80;;;;;;;;;;5009001;28;20453;-80
2023/05/30 12:16:53;;;;;;;1.33;1.23;;;;;;;;;;5002814;28;20456;-79
2023/05/30 12:19:19;;;;;;;0.80;0.70;;;;;;;;;;5003035;28;20447;-78
2023/05/30 12:21:50;;;;;;;0.80;0.70;;;;;;;;;;5010363;28;21187;-80
2023/05/30 12:24:22;;;;;;;1.30;0.70;;;;;;;;;;5006607;28;20447;-75
2023/05/30 12:26:52;;;;;;;0.80;0.70;;;;;;;;;;5006500;28;20934;-81
2023/05/30 12:29:22;;;;;;;0.70;0.60;;;;;;;;;;5015643;28;20458;-80
2023/05/30 12:31:48;;;;;;;0.70;0.60;;;;;;;;;;5004828;28;20454;-80
2023/05/30 12:34:16;;;;;;;2.20;1.77;;;;;;;;;;5011300;28;20519;-79
2023/05/30 12:36:45;;;;;;;0.80;0.70;;;;;;;;;;5010010;28;20466;-78
2023/05/30 12:39:12;;;;;;;1.77;1.27;;;;;;;;;;5014736;28;20442;-79
2023/05/30 12:41:40;;;;;;;0.87;0.87;;;;;;;;;;5010147;28;20576;-75
2023/05/30 12:44:14;;;;;;;0.80;0.80;;;;;;;;;;5009888;28;20437;-77
2023/05/30 12:46:42;;;;;;;0.80;0.63;;;;;;;;;;5011939;28;20456;-77
2023/05/30 12:49:10;;;;;;;1.00;0.90;;;;;;;;;;4996485;28;20442;-76
2023/05/30 12:51:37;;;;;;;5.87;1.23;;;;;;;;;;5024524;28;20457;-81
2023/05/30 12:54:03;;;;;;;1.10;0.97;;;;;;;;;;5019523;28;20445;-78
2023/05/30 12:56:32;;;;;;;0.70;0.50;;;;;;;;;;5033295;28;20450;-81
2023/05/30 12:59:02;;;;;;;0.90;0.70;;;;;;;;;;5012385;28;20467;-80
2023/05/30 13:01:29;;;;;;;0.70;0.50;;;;;;;;;;5013087;28;20470;-79
2023/05/30 13:03:56;;;;;;;0.70;0.60;;;;;;;;;;5037269;28;20478;-79
2023/05/30 13:06:24;;;;;;;1.33;1.20;;;;;;;;;;5013857;28;20438;-79
2023/05/30 13:08:51;;;;;;;0.70;0.60;;;;;;;;;;5010983;28;20441;-80
2023/05/30 13:11:18;;;;;;;0.70;0.53;;;;;;;;;;4995123;28;20446;-79
2023/05/30 13:13:44;;;;;;;1.30;1.00;;;;;;;;;;5009826;28;20503;-80
2023/05/30 13:16:13;;;;;;;0.70;0.60;;;;;;;;;;5019838;28;20436;-77
2023/05/30 13:18:40;;;;;;;0.70;0.60;;;;;;;;;;5007023;28;20488;-76
2023/05/30 13:21:07;;;;;;;0.90;0.70;;;;;;;;;;5014526;28;20477;-76
2023/05/30 13:23:34;;;;;;;0.70;0.57;;;;;;;;;;5002570;28;20842;-75
2023/05/30 13:26:01;;;;;;;0.70;0.60;;;;;;;;;;5004488;28;20438;-75
2023/05/30 13:28:28;;;;;;;0.70;0.50;;;;;;;;;;5014368;28;20442;-77
2023/05/30 13:30:55;;;;;;;0.80;0.60;;;;;;;;;;5017489;28;20878;-77
2023/05/30 13:33:24;;;;;;;0.70;0.50;;;;;;;;;;5020671;28;21033;-76
2023/05/30 13:35:51;;;;;;;0.80;0.60;;;;;;;;;;5010659;28;20445;-76
2023/05/30 13:38:19;;;;;;;1.07;0.97;;;;;;;;;;5003595;28;20483;-76
2023/05/30 13:40:46;;;;;;;1.10;0.93;;;;;;;;;;4991365;28;20473;-75
2023/05/30 13:43:14;;;;;;;1.27;0.60;;;;;;;;;;5002475;28;20819;-75
2023/05/30 13:45:42;;;;;;;1.13;1.00;;;;;;;;;;5005122;28;20792;-75
2023/05/30 13:48:09;;;;;;;0.80;0.50;;;;;;;;;;4988421;28;20465;-75
2023/05/30 13:50:38;;;;;;;1.87;0.87;;;;;;;;;;4998401;28;20505;-76
2023/05/30 13:53:05;;;;;;;2.00;1.47;;;;;;;;;;5000406;28;20565;-77
2023/05/30 13:55:33;;;;;;;0.80;0.70;;;;;;;;;;5007302;28;20454;-76
2023/05/30 13:58:00;;;;;;;4.10;1.07;;;;;;;;;;5017504;28;20496;-75
2023/05/30 14:00:27;;;;;;;0.90;0.90;;;;;;;;;;5005820;28;20510;-75
2023/05/30 14:02:54;;;;;;;2.40;0.97;;;;;;;;;;5000283;28;20837;-75
2023/05/30 14:05:23;;;;;;;0.70;0.60;;;;;;;;;;5011518;28;20990;-74
2023/05/30 14:07:51;;;;;;;0.70;0.60;;;;;;;;;;5009233;28;20505;-76
2023/05/30 14:10:18;;;;;;;1.17;1.07;;;;;;;;;;4991572;28;20465;-75
2023/05/30 14:12:46;;;;;;;1.67;1.57;;;;;;;;;;4988009;28;20540;-77
2023/05/30 14:15:15;;;;;;;1.10;0.60;;;;;;;;;;5002012;28;20437;-77
2023/05/30 14:17:42;;;;;;;0.70;0.50;;;;;;;;;;5013555;28;20505;-77
2023/05/30 14:20:10;;;;;;;1.00;0.87;;;;;;;;;;5003514;28;20438;-75
2023/05/30 14:22:37;;;;;;;0.90;0.60;;;;;;;;;;5008750;28;20486;-75
2023/05/30 14:25:06;;;;;;;1.03;0.90;;;;;;;;;;5006153;28;20844;-75
2023/05/30 14:27:35;;;;;;;0.87;0.80;;;;;;;;;;5003412;28;20849;-75
2023/05/30 14:30:02;;;;;;;0.90;0.70;;;;;;;;;;5003931;28;20959;-76
2023/05/30 14:32:29;;;;;;;0.80;0.70;;;;;;;;;;5009100;28;20451;-75
2023/05/30 14:34:57;;;;;;;0.80;0.60;;;;;;;;;;5011514;28;21284;-77
2023/05/30 14:37:24;;;;;;;0.80;0.70;;;;;;;;;;5009783;28;20477;-75
2023/05/30 14:39:50;;;;;;;1.10;0.67;;;;;;;;;;5007081;28;20999;-74
2023/05/30 14:42:18;;;;;;;4.73;1.37;;;;;;;;;;5009653;28;20477;-75
2023/05/30 14:44:45;;;;;;;0.90;0.73;;;;;;;;;;5008611;28;20461;-74
2023/05/30 14:47:13;;;;;;;0.80;0.80;;;;;;;;;;5005802;28;20543;-78
2023/05/30 14:49:40;;;;;;;0.80;0.50;;;;;;;;;;5002787;28;21183;-76